createdAt,value
2019-01-11T00:00:27.520Z,11.83
2019-01-11T00:02:56.164Z,13.35
2019-01-11T00:05:24.751Z,13.95
2019-01-11T00:07:53.328Z,11.08
2019-01-11T00:10:21.924Z,11.70
2019-01-11T00:12:50.491Z,11.75
2019-01-11T00:15:19.095Z,12.10
2019-01-11T00:17:47.672Z,11.90
2019-01-11T00:20:16.271Z,12.98
2019-01-11T00:22:44.847Z,11.05
2019-01-11T00:25:13.569Z,11.60
2019-01-11T00:27:42.144Z,13.28
2019-01-11T00:30:13.766Z,13.13
2019-01-11T00:32:42.342Z,12.90
2019-01-11T00:35:11.000Z,13.20
2019-01-11T00:37:39.570Z,11.63
2019-01-11T00:40:08.161Z,13.10
2019-01-11T00:42:36.735Z,12.53
2019-01-11T00:45:08.366Z,13.65
2019-01-11T00:47:36.940Z,12.98
2019-01-11T00:50:07.871Z,13.50
2019-01-11T00:52:36.439Z,12.70
2019-01-11T00:55:07.371Z,14.20
2019-01-11T00:57:35.938Z,13.72
2019-01-11T01:00:19.322Z,14.18
2019-01-11T01:02:48.134Z,13.93
2019-01-11T01:05:16.794Z,14.98
2019-01-11T01:07:45.606Z,14.33
2019-01-11T01:10:14.334Z,12.28
2019-01-11T01:12:42.907Z,13.85
2019-01-11T01:15:12.303Z,12.20
2019-01-11T01:17:40.875Z,12.65
2019-01-11T01:20:12.903Z,13.62
2019-01-11T01:22:41.481Z,12.95
2019-01-11T01:25:11.674Z,11.25
2019-01-11T01:27:40.390Z,12.20
2019-01-11T01:30:19.386Z,11.83
2019-01-11T01:32:48.022Z,11.88
2019-01-11T01:35:16.620Z,10.98
2019-01-11T01:37:45.205Z,12.05
2019-01-11T01:40:15.707Z,9.68
2019-01-11T01:42:44.439Z,9.50
2019-01-11T01:45:16.138Z,10.55
2019-01-11T01:47:44.838Z,9.70
2019-01-11T01:50:13.752Z,11.33
2019-01-11T01:52:42.415Z,9.50
2019-01-11T01:55:12.718Z,10.32
2019-01-11T01:57:41.324Z,9.35
2019-01-11T02:00:18.526Z,9.70
2019-01-11T02:02:47.255Z,9.80
2019-01-11T02:05:16.358Z,9.60
2019-01-11T02:07:44.947Z,8.98
2019-01-11T02:10:14.254Z,10.70
2019-01-11T02:12:42.839Z,9.13
2019-01-11T02:15:12.246Z,9.35
2019-01-11T02:17:40.838Z,9.40
2019-01-11T02:20:12.442Z,8.25
2019-01-11T02:22:41.107Z,9.73
2019-01-11T02:25:10.013Z,8.88
2019-01-11T02:27:38.607Z,9.75
2019-01-11T02:30:18.959Z,8.95
2019-01-11T02:32:52.379Z,8.25
2019-01-11T02:35:17.831Z,7.50
2019-01-11T02:37:46.658Z,9.45
2019-01-11T02:40:15.487Z,9.63
2019-01-11T02:42:44.089Z,8.63
2019-01-11T02:45:15.654Z,8.85
2019-01-11T02:47:44.243Z,9.28
2019-01-11T02:50:13.851Z,9.53
2019-01-11T02:52:42.612Z,9.13
2019-01-11T02:55:11.242Z,9.00
2019-01-11T02:57:39.849Z,9.08
2019-01-11T03:00:14.304Z,8.20
2019-01-11T03:02:43.030Z,9.20
2019-01-11T03:05:12.144Z,10.35
2019-01-11T03:07:40.976Z,8.28
2019-01-11T03:10:12.619Z,8.95
2019-01-11T03:12:41.202Z,9.20
2019-01-11T03:15:10.814Z,9.45
2019-01-11T03:17:39.394Z,9.98
2019-01-11T03:20:10.672Z,9.90
2019-01-11T03:22:39.259Z,9.25
2019-01-11T03:25:10.167Z,9.65
2019-01-11T03:27:38.823Z,9.38
2019-01-11T03:30:16.227Z,9.55
2019-01-11T03:32:44.820Z,9.68
2019-01-11T03:35:17.518Z,9.85
2019-01-11T03:37:47.749Z,9.60
2019-01-11T03:40:18.664Z,9.40
2019-01-11T03:42:47.252Z,8.98
2019-01-11T03:45:17.758Z,9.63
2019-01-11T03:47:46.417Z,9.70
2019-01-11T03:50:17.017Z,9.20
2019-01-11T03:52:45.740Z,8.60
2019-01-11T03:55:15.521Z,9.53
2019-01-11T03:57:44.176Z,7.92
2019-01-11T04:00:15.384Z,8.35
2019-01-11T04:02:43.979Z,8.65
2019-01-11T04:05:12.624Z,9.78
2019-01-11T04:07:41.206Z,9.65
2019-01-11T04:10:12.848Z,8.85
2019-01-11T04:12:41.445Z,8.90
2019-01-11T04:15:12.538Z,8.43
2019-01-11T04:17:41.123Z,8.80
2019-01-11T04:20:15.999Z,7.40
2019-01-11T04:22:46.291Z,8.40
2019-01-11T04:25:19.668Z,8.53
2019-01-11T04:27:48.266Z,8.55
2019-01-11T04:30:17.383Z,8.55
2019-01-11T04:32:45.956Z,8.20
2019-01-11T04:35:14.593Z,7.97
2019-01-11T04:37:43.189Z,7.47
2019-01-11T04:40:13.492Z,7.10
2019-01-11T04:42:42.078Z,9.55
2019-01-11T04:45:10.883Z,6.80
2019-01-11T04:47:39.486Z,6.58
2019-01-11T04:50:10.978Z,7.65
2019-01-11T04:52:39.573Z,7.53
2019-01-11T04:55:08.271Z,7.20
2019-01-11T04:57:36.858Z,6.42
2019-01-11T05:00:08.793Z,7.35
2019-01-11T05:02:37.383Z,7.33
2019-01-11T05:05:06.375Z,7.55
2019-01-11T05:07:34.965Z,6.78
2019-01-11T05:10:05.767Z,6.30
2019-01-11T05:12:34.360Z,7.15
2019-01-11T05:15:02.922Z,6.70
2019-01-11T05:17:31.513Z,7.40
2019-01-11T05:20:00.370Z,7.97
2019-01-11T05:22:28.967Z,8.15
2019-01-11T05:24:57.535Z,8.38
2019-01-11T05:27:26.131Z,8.28
2019-01-11T05:29:54.694Z,8.13
2019-01-11T05:32:23.285Z,8.30
2019-01-11T05:34:51.855Z,8.90
2019-01-11T05:37:20.443Z,9.08
2019-01-11T05:39:49.016Z,8.13
2019-01-11T05:42:17.606Z,9.63
2019-01-11T05:44:46.176Z,10.85
2019-01-11T05:47:14.759Z,9.60
2019-01-11T05:49:43.333Z,9.98
2019-01-11T05:52:11.894Z,10.40
2019-01-11T05:54:40.491Z,10.18
2019-01-11T05:57:09.068Z,11.55
2019-01-11T05:59:37.654Z,10.20
2019-01-11T06:02:06.355Z,9.28
2019-01-11T06:04:36.583Z,10.40
2019-01-11T06:07:06.795Z,10.25
2019-01-11T06:09:35.387Z,10.10
2019-01-11T06:12:03.962Z,12.73
2019-01-11T06:14:32.552Z,10.90
2019-01-11T06:17:01.135Z,10.23
2019-01-11T06:19:29.739Z,10.63
2019-01-11T06:21:58.307Z,11.60
2019-01-11T06:24:26.895Z,12.07
2019-01-11T06:26:55.473Z,11.95
2019-01-11T06:29:24.067Z,13.05
2019-01-11T06:31:52.626Z,12.23
2019-01-11T06:34:21.219Z,12.95
2019-01-11T06:36:49.790Z,11.33
2019-01-11T06:39:18.375Z,13.08
2019-01-11T06:41:48.586Z,13.10
2019-01-11T06:44:17.182Z,13.53
2019-01-11T06:46:46.322Z,13.72
2019-01-11T06:49:14.915Z,14.20
2019-01-11T06:51:43.478Z,15.20
2019-01-11T06:54:12.075Z,13.20
2019-01-11T06:56:40.647Z,14.43
2019-01-11T06:59:11.886Z,17.65
2019-01-11T07:01:40.458Z,15.65
2019-01-11T07:04:09.043Z,14.47
2019-01-11T07:06:37.619Z,14.13
2019-01-11T07:09:07.852Z,14.07
2019-01-11T07:11:36.427Z,16.10
2019-01-11T07:14:05.162Z,13.55
2019-01-11T07:16:33.735Z,14.98
2019-01-11T07:19:02.323Z,15.95
2019-01-11T07:21:30.900Z,16.75
2019-01-11T07:23:59.490Z,15.20
2019-01-11T07:26:28.059Z,15.53
2019-01-11T07:28:56.647Z,15.30
2019-01-11T07:31:25.286Z,16.32
2019-01-11T07:33:54.052Z,15.38
2019-01-11T07:36:29.230Z,15.35
2019-01-11T07:38:57.952Z,16.60
2019-01-11T07:41:26.590Z,17.00
2019-01-11T07:43:55.169Z,14.93
2019-01-11T07:46:23.743Z,15.83
2019-01-11T07:48:52.335Z,16.70
2019-01-11T07:51:20.912Z,13.95
2019-01-11T07:53:49.503Z,16.60
2019-01-11T07:56:18.075Z,17.57
2019-01-11T07:58:46.669Z,16.45
2019-01-11T08:01:15.312Z,15.88
2019-01-11T08:03:43.898Z,15.30
2019-01-11T08:06:12.540Z,16.60
2019-01-11T08:08:41.194Z,13.58
2019-01-11T08:11:09.772Z,13.15
2019-01-11T08:13:38.367Z,13.90
2019-01-11T08:16:06.934Z,14.23
2019-01-11T08:18:35.527Z,14.78
2019-01-11T08:21:04.103Z,15.38
2019-01-11T08:23:32.701Z,13.68
2019-01-11T08:26:01.258Z,14.00
2019-01-11T08:28:31.796Z,13.32
2019-01-11T08:31:00.370Z,13.38
2019-01-11T08:33:30.598Z,12.30
2019-01-11T08:35:59.171Z,12.37
2019-01-11T08:38:27.739Z,13.68
2019-01-11T08:40:56.327Z,14.25
2019-01-11T08:43:24.967Z,13.65
2019-01-11T08:45:53.560Z,12.60
2019-01-11T08:48:22.130Z,12.58
2019-01-11T08:50:50.795Z,13.90
2019-01-11T08:53:19.358Z,13.03
2019-01-11T08:55:47.954Z,14.10
2019-01-11T08:58:16.523Z,15.03
2019-01-11T09:00:45.286Z,15.55
2019-01-11T09:03:13.859Z,14.20
2019-01-11T09:05:42.454Z,13.60
2019-01-11T09:08:11.023Z,15.50
2019-01-11T09:10:39.611Z,14.55
2019-01-11T09:13:08.192Z,15.08
2019-01-11T09:15:36.775Z,15.72
2019-01-11T09:18:12.702Z,13.95
2019-01-11T09:20:41.563Z,14.80
2019-01-11T09:23:10.203Z,15.38
2019-01-11T09:25:38.796Z,13.85
2019-01-11T09:28:07.608Z,16.00
2019-01-11T09:30:36.270Z,14.80
2019-01-11T09:33:05.107Z,15.53
2019-01-11T09:35:33.703Z,15.75
2019-01-11T09:38:02.548Z,15.65
2019-01-11T09:40:31.137Z,14.40
2019-01-11T09:42:59.703Z,14.25
2019-01-11T09:45:28.466Z,15.35
2019-01-11T09:47:57.098Z,15.13
2019-01-11T09:50:25.758Z,15.50
2019-01-11T09:52:54.336Z,15.60
2019-01-11T09:55:22.928Z,15.05
2019-01-11T09:57:51.499Z,13.32
2019-01-11T10:00:23.025Z,13.70
2019-01-11T10:02:53.303Z,14.70
2019-01-11T10:05:21.891Z,13.78
2019-01-11T10:07:50.467Z,16.55
2019-01-11T10:10:19.126Z,14.98
2019-01-11T10:12:48.571Z,14.30
2019-01-11T10:15:17.298Z,13.50
2019-01-11T10:17:47.340Z,13.90
2019-01-11T10:20:16.003Z,14.47
2019-01-11T10:22:44.575Z,12.28
2019-01-11T10:25:13.244Z,12.55
2019-01-11T10:27:41.883Z,11.38
2019-01-11T10:30:13.210Z,11.03
2019-01-11T10:32:41.852Z,11.55
2019-01-11T10:35:11.180Z,12.43
2019-01-11T10:37:39.753Z,11.25
2019-01-11T10:40:11.182Z,10.45
2019-01-11T10:42:39.827Z,11.30
2019-01-11T10:45:11.555Z,11.70
2019-01-11T10:47:40.125Z,11.22
2019-01-11T10:50:12.690Z,11.00
2019-01-11T10:52:41.434Z,10.48
2019-01-11T10:55:12.263Z,10.05
2019-01-11T10:57:41.070Z,9.25
2019-01-11T11:00:18.363Z,9.73
2019-01-11T11:02:46.934Z,10.08
2019-01-11T11:05:15.523Z,10.45
2019-01-11T11:07:44.227Z,10.65
2019-01-11T11:10:13.957Z,10.40
2019-01-11T11:12:42.519Z,9.45
2019-01-11T11:15:13.547Z,9.70
2019-01-11T11:17:42.112Z,9.28
2019-01-11T11:20:13.352Z,10.25
2019-01-11T11:22:41.992Z,9.78
2019-01-11T11:25:13.519Z,10.18
2019-01-11T11:27:42.087Z,9.28
2019-01-11T11:30:13.214Z,9.88
2019-01-11T11:32:49.015Z,8.38
2019-01-11T11:35:17.608Z,8.13
2019-01-11T11:37:46.175Z,8.45
2019-01-11T11:40:14.899Z,8.55
2019-01-11T11:42:43.461Z,8.20
2019-01-11T11:45:12.127Z,8.08
2019-01-11T11:47:40.686Z,7.60
2019-01-11T11:50:10.623Z,8.93
2019-01-11T11:52:39.255Z,8.65
2019-01-11T11:55:09.289Z,9.20
2019-01-11T11:57:37.917Z,10.15
2019-01-11T12:00:09.587Z,9.03
2019-01-11T12:02:38.155Z,9.80
2019-01-11T12:05:07.483Z,8.98
2019-01-11T12:07:36.050Z,9.00
2019-01-11T12:10:06.666Z,8.33
2019-01-11T12:12:35.250Z,10.28
2019-01-11T12:15:04.593Z,10.68
2019-01-11T12:17:33.179Z,10.20
2019-01-11T12:20:01.822Z,10.63
2019-01-11T12:22:30.424Z,9.38
2019-01-11T12:24:58.975Z,9.70
2019-01-11T12:27:27.559Z,9.13
2019-01-11T12:29:56.123Z,10.75
2019-01-11T12:32:24.710Z,10.05
2019-01-11T12:34:53.277Z,9.70
2019-01-11T12:37:21.867Z,9.75
2019-01-11T12:39:50.434Z,10.10
2019-01-11T12:42:19.022Z,11.10
2019-01-11T12:44:47.662Z,10.10
2019-01-11T12:47:16.255Z,9.65
2019-01-11T12:49:44.828Z,8.83
2019-01-11T12:52:13.428Z,10.30
2019-01-11T12:54:41.987Z,10.35
2019-01-11T12:57:10.582Z,9.28
2019-01-11T12:59:39.147Z,9.75
2019-01-11T13:02:07.867Z,10.03
2019-01-11T13:04:36.439Z,10.35
2019-01-11T13:07:05.023Z,9.95
2019-01-11T13:09:33.587Z,9.33
2019-01-11T13:12:02.174Z,9.73
2019-01-11T13:14:30.734Z,9.25
2019-01-11T13:16:59.331Z,10.60
2019-01-11T13:19:27.903Z,10.08
2019-01-11T13:22:00.547Z,11.35
2019-01-11T13:24:26.716Z,10.72
2019-01-11T13:26:55.382Z,10.60
2019-01-11T13:29:24.024Z,10.98
2019-01-11T13:31:52.615Z,11.53
2019-01-11T13:34:21.186Z,11.43
2019-01-11T13:36:53.848Z,11.68
2019-01-11T13:39:19.991Z,11.10
2019-01-11T13:41:48.579Z,9.80
2019-01-11T13:44:17.150Z,11.28
2019-01-11T13:46:45.811Z,9.98
2019-01-11T13:49:14.383Z,10.50
2019-01-11T13:51:42.975Z,11.73
2019-01-11T13:54:11.538Z,11.15
2019-01-11T13:56:40.134Z,11.15
2019-01-11T13:59:08.703Z,12.63
2019-01-11T14:01:37.299Z,12.82
2019-01-11T14:04:05.871Z,12.50
2019-01-11T14:06:34.460Z,12.50
2019-01-11T14:09:03.091Z,13.35
2019-01-11T14:11:33.689Z,12.30
2019-01-11T14:14:02.310Z,14.10
2019-01-11T14:16:30.901Z,11.93
2019-01-11T14:18:59.467Z,13.55
2019-01-11T14:21:28.062Z,12.73
2019-01-11T14:23:56.636Z,15.53
2019-01-11T14:26:25.227Z,13.72
2019-01-11T14:28:53.799Z,13.62
2019-01-11T14:31:22.391Z,12.93
2019-01-11T14:33:50.978Z,14.47
2019-01-11T14:36:19.575Z,14.58
2019-01-11T14:38:48.140Z,14.47
2019-01-11T14:41:16.984Z,13.58
2019-01-11T14:43:45.575Z,13.53
2019-01-11T14:46:14.139Z,14.03
2019-01-11T14:48:42.731Z,14.20
2019-01-11T14:51:11.371Z,13.65
2019-01-11T14:53:39.971Z,16.07
2019-01-11T14:56:08.535Z,14.33
2019-01-11T14:58:37.134Z,14.58
2019-01-11T15:01:05.718Z,14.10
2019-01-11T15:03:34.294Z,13.75
2019-01-11T15:06:02.867Z,15.00
2019-01-11T15:08:31.450Z,14.45
2019-01-11T15:11:00.019Z,13.50
2019-01-11T15:13:28.612Z,13.58
2019-01-11T15:15:57.187Z,15.32
2019-01-11T15:18:25.771Z,14.98
2019-01-11T15:20:54.343Z,16.48
2019-01-11T15:23:22.938Z,15.95
2019-01-11T15:25:51.501Z,15.50
2019-01-11T15:28:20.093Z,16.65
2019-01-11T15:30:48.663Z,16.20
2019-01-11T15:33:17.327Z,15.93
2019-01-11T15:35:45.986Z,15.80
2019-01-11T15:38:14.752Z,16.85
2019-01-11T15:40:43.467Z,17.15
2019-01-11T15:43:12.103Z,17.50
2019-01-11T15:45:40.667Z,17.65
2019-01-11T15:48:13.311Z,17.70
2019-01-11T15:50:52.202Z,16.85
2019-01-11T15:53:20.806Z,17.50
2019-01-11T15:55:49.603Z,18.07
2019-01-11T15:58:18.203Z,17.67
2019-01-11T16:00:48.412Z,18.60
2019-01-11T16:03:17.638Z,17.57
2019-01-11T16:05:46.207Z,18.82
2019-01-11T16:08:14.790Z,19.92
2019-01-11T16:11:07.168Z,18.85
2019-01-11T16:13:38.962Z,20.08
2019-01-11T16:16:10.070Z,19.00
2019-01-11T16:18:38.650Z,20.32
2019-01-11T16:21:07.227Z,18.40
2019-01-11T16:23:35.808Z,21.33
2019-01-11T16:26:04.511Z,19.73
2019-01-11T16:28:33.096Z,20.27
2019-01-11T16:31:01.663Z,22.15
2019-01-11T16:33:30.247Z,21.23
2019-01-11T16:35:58.817Z,20.82
2019-01-11T16:38:27.408Z,21.85
2019-01-11T16:40:55.971Z,21.87
2019-01-11T16:43:24.563Z,20.65
2019-01-11T16:45:53.128Z,21.55
2019-01-11T16:48:21.724Z,21.42
2019-01-11T16:50:50.287Z,23.07
2019-01-11T16:53:18.870Z,25.20
2019-01-11T16:55:47.443Z,22.70
2019-01-11T16:58:16.027Z,24.00
2019-01-11T17:00:44.595Z,24.92
2019-01-11T17:03:13.200Z,24.50
2019-01-11T17:05:41.759Z,25.48
2019-01-11T17:08:10.350Z,25.25
2019-01-11T17:10:38.906Z,24.12
2019-01-11T17:13:07.512Z,23.00
2019-01-11T17:15:36.608Z,22.98
2019-01-11T17:18:05.255Z,22.37
2019-01-11T17:20:33.799Z,22.37
2019-01-11T17:23:02.392Z,21.80
2019-01-11T17:25:30.955Z,21.82
2019-01-11T17:27:59.539Z,24.27
2019-01-11T17:30:28.111Z,22.93
2019-01-11T17:32:56.714Z,25.68
2019-01-11T17:35:25.271Z,24.70
2019-01-11T17:37:53.834Z,22.65
2019-01-11T17:40:22.426Z,23.45
2019-01-11T17:42:51.053Z,24.05
2019-01-11T17:45:19.620Z,24.27
2019-01-11T17:47:48.178Z,23.67
2019-01-11T17:50:16.912Z,24.35
2019-01-11T17:52:45.545Z,22.10
2019-01-11T17:55:14.196Z,21.05
2019-01-11T17:57:42.836Z,23.60
2019-01-11T18:00:14.055Z,22.90
2019-01-11T18:02:42.751Z,22.70
2019-01-11T18:05:12.968Z,23.20
2019-01-11T18:07:41.533Z,20.77
2019-01-11T18:10:11.323Z,23.00
2019-01-11T18:12:40.126Z,21.97
2019-01-11T18:15:11.764Z,24.23
2019-01-11T18:17:40.329Z,22.70
2019-01-11T18:20:20.372Z,23.35
2019-01-11T18:22:48.936Z,23.65
2019-01-11T18:25:17.523Z,23.95
2019-01-11T18:27:46.138Z,23.18
2019-01-11T18:30:18.703Z,22.10
2019-01-11T18:32:47.408Z,22.85
2019-01-11T18:35:16.840Z,21.93
2019-01-11T18:37:45.403Z,24.00
2019-01-11T18:40:19.292Z,22.13
2019-01-11T18:42:47.937Z,21.37
2019-01-11T18:45:17.075Z,21.68
2019-01-11T18:47:45.622Z,22.35
2019-01-11T18:50:16.640Z,22.37
2019-01-11T18:52:45.278Z,22.70
2019-01-11T18:55:13.942Z,23.32
2019-01-11T18:57:42.673Z,24.05
2019-01-11T19:00:16.694Z,22.30
2019-01-11T19:02:45.366Z,22.10
2019-01-11T19:05:15.051Z,24.00
2019-01-11T19:07:46.097Z,22.05
2019-01-11T19:10:16.068Z,24.12
2019-01-11T19:12:44.695Z,23.27
2019-01-11T19:15:15.828Z,23.83
2019-01-11T19:17:44.391Z,24.27
2019-01-11T19:20:17.882Z,22.35
2019-01-11T19:22:46.451Z,23.42
2019-01-11T19:25:15.211Z,23.02
2019-01-11T19:27:43.839Z,21.85
2019-01-11T19:30:18.041Z,22.70
2019-01-11T19:32:46.755Z,21.52
2019-01-11T19:35:15.445Z,21.95
2019-01-11T19:37:44.056Z,20.52
2019-01-11T19:40:16.900Z,20.75
2019-01-11T19:42:45.502Z,21.00
2019-01-11T19:45:16.267Z,20.43
2019-01-11T19:47:45.290Z,19.15
2019-01-11T19:50:16.682Z,20.57
2019-01-11T19:52:45.240Z,20.43
2019-01-11T19:55:14.194Z,19.92
2019-01-11T19:57:42.851Z,18.57
2019-01-11T20:00:14.590Z,20.23
2019-01-11T20:02:43.236Z,20.43
2019-01-11T20:05:12.275Z,21.10
2019-01-11T20:07:40.896Z,20.45
2019-01-11T20:10:12.569Z,21.40
2019-01-11T20:12:41.128Z,23.12
2019-01-11T20:15:09.956Z,21.90
2019-01-11T20:17:38.528Z,18.67
2019-01-11T20:20:10.510Z,22.60
2019-01-11T20:22:39.075Z,20.72
2019-01-11T20:25:10.735Z,20.62
2019-01-11T20:27:39.307Z,20.72
2019-01-11T20:30:10.976Z,20.72
2019-01-11T20:32:39.539Z,20.70
2019-01-11T20:35:08.263Z,18.25
2019-01-11T20:37:36.895Z,19.80
2019-01-11T20:40:08.892Z,21.00
2019-01-11T20:42:37.460Z,20.70
2019-01-11T20:45:08.058Z,21.23
2019-01-11T20:47:36.647Z,20.12
2019-01-11T20:50:08.349Z,19.62
2019-01-11T20:52:36.871Z,21.25
2019-01-11T20:55:07.879Z,19.37
2019-01-11T20:57:36.467Z,20.35
2019-01-11T21:00:14.124Z,20.23
2019-01-11T21:02:42.764Z,19.48
2019-01-11T21:05:12.169Z,20.20
2019-01-11T21:07:40.838Z,20.72
2019-01-11T21:10:11.146Z,21.95
2019-01-11T21:12:39.813Z,21.30
2019-01-11T21:15:11.278Z,23.47
2019-01-11T21:17:39.874Z,20.08
2019-01-11T21:20:11.680Z,21.23
2019-01-11T21:22:40.334Z,21.05
2019-01-11T21:25:11.243Z,20.45
2019-01-11T21:27:39.904Z,20.95
2019-01-11T21:30:14.035Z,19.73
2019-01-11T21:32:42.623Z,19.37
2019-01-11T21:35:11.423Z,20.40
2019-01-11T21:37:40.007Z,22.55
2019-01-11T21:40:11.922Z,24.23
2019-01-11T21:42:40.502Z,26.35
2019-01-11T21:45:10.502Z,22.52
2019-01-11T21:47:39.094Z,22.42
2019-01-11T21:50:10.734Z,21.15
2019-01-11T21:52:39.327Z,22.52
2019-01-11T21:55:08.731Z,21.95
2019-01-11T21:57:37.323Z,22.13
2019-01-11T22:00:23.804Z,20.60
2019-01-11T22:02:52.392Z,21.33
2019-01-11T22:05:21.031Z,19.85
2019-01-11T22:07:49.687Z,21.30
2019-01-11T22:10:18.255Z,19.98
2019-01-11T22:12:47.749Z,20.52
2019-01-11T22:15:21.271Z,20.80
2019-01-11T22:17:49.787Z,19.70
2019-01-11T22:20:19.098Z,18.80
2019-01-11T22:22:47.754Z,19.17
2019-01-11T22:25:17.658Z,17.40
2019-01-11T22:27:46.243Z,19.12
2019-01-11T22:30:20.635Z,19.65
2019-01-11T22:32:49.220Z,18.52
2019-01-11T22:35:18.527Z,17.35
2019-01-11T22:37:47.246Z,18.32
2019-01-11T22:40:21.348Z,18.12
2019-01-11T22:42:51.766Z,17.30
2019-01-11T22:45:20.335Z,18.23
2019-01-11T22:47:48.928Z,17.70
2019-01-11T22:50:17.555Z,16.90
2019-01-11T22:52:46.148Z,17.48
2019-01-11T22:55:16.856Z,17.70
2019-01-11T22:57:45.664Z,16.55
2019-01-11T23:00:39.867Z,18.65
2019-01-11T23:03:14.399Z,18.82
2019-01-11T23:05:42.971Z,21.48
2019-01-11T23:08:13.695Z,19.50
2019-01-11T23:10:48.245Z,19.98
2019-01-11T23:13:16.828Z,22.35
2019-01-11T23:15:45.467Z,22.50
2019-01-11T23:18:14.056Z,20.12
2019-01-11T23:20:42.687Z,23.77
2019-01-11T23:23:11.295Z,21.45
2019-01-11T23:25:39.860Z,22.90
2019-01-11T23:28:08.423Z,20.20
2019-01-11T23:30:37.082Z,20.25
2019-01-11T23:33:05.720Z,21.68
2019-01-11T23:35:34.303Z,21.70
2019-01-11T23:38:02.875Z,21.23
2019-01-11T23:40:31.467Z,21.27
2019-01-11T23:43:00.036Z,23.40
2019-01-11T23:45:28.699Z,20.27
2019-01-11T23:47:57.263Z,19.52
2019-01-11T23:50:25.847Z,20.37
2019-01-11T23:52:54.416Z,20.15
2019-01-11T23:55:23.003Z,19.57
2019-01-11T23:57:51.576Z,18.67
